sensor_id;sensor_type;location;lat;lon;timestamp;P1;durP1;ratioP1;P2;durP2;ratioP2
16967;SDS011;64862;54.398;10.126;2022-11-20T00:01:39;6.93;;;4.20;;
16967;SDS011;64862;54.398;10.126;2022-11-20T00:04:09;9.15;;;4.85;;
16967;SDS011;64862;54.398;10.126;2022-11-20T00:06:41;9.10;;;4.82;;
16967;SDS011;64862;54.398;10.126;2022-11-20T00:09:09;6.88;;;4.45;;
16967;SDS011;64862;54.398;10.126;2022-11-20T00:11:37;6.65;;;4.15;;
16967;SDS011;64862;54.398;10.126;2022-11-20T00:14:06;8.48;;;3.92;;
16967;SDS011;64862;54.398;10.126;2022-11-20T00:16:33;7.03;;;3.92;;
16967;SDS011;64862;54.398;10.126;2022-11-20T00:19:01;6.25;;;3.60;;
16967;SDS011;64862;54.398;10.126;2022-11-20T00:21:29;6.80;;;4.10;;
16967;SDS011;64862;54.398;10.126;2022-11-20T00:23:58;7.75;;;4.10;;
16967;SDS011;64862;54.398;10.126;2022-11-20T00:26:26;7.30;;;4.25;;
16967;SDS011;64862;54.398;10.126;2022-11-20T00:28:55;9.10;;;4.50;;
16967;SDS011;64862;54.398;10.126;2022-11-20T00:31:24;6.20;;;3.92;;
16967;SDS011;64862;54.398;10.126;2022-11-20T00:33:52;6.60;;;4.43;;
16967;SDS011;64862;54.398;10.126;2022-11-20T00:36:21;6.80;;;4.47;;
16967;SDS011;64862;54.398;10.126;2022-11-20T00:38:51;7.57;;;4.38;;
16967;SDS011;64862;54.398;10.126;2022-11-20T00:41:21;8.45;;;4.15;;
16967;SDS011;64862;54.398;10.126;2022-11-20T00:43:49;8.02;;;4.45;;
16967;SDS011;64862;54.398;10.126;2022-11-20T00:46:18;6.38;;;4.10;;
16967;SDS011;64862;54.398;10.126;2022-11-20T00:48:46;8.30;;;4.75;;
16967;SDS011;64862;54.398;10.126;2022-11-20T00:51:14;7.57;;;4.28;;
16967;SDS011;64862;54.398;10.126;2022-11-20T00:53:48;7.63;;;4.85;;
16967;SDS011;64862;54.398;10.126;2022-11-20T00:56:53;9.18;;;5.13;;
16967;SDS011;64862;54.398;10.126;2022-11-20T00:59:21;8.13;;;4.93;;
16967;SDS011;64862;54.398;10.126;2022-11-20T01:01:49;8.80;;;5.15;;
16967;SDS011;64862;54.398;10.126;2022-11-20T01:04:16;18.42;;;8.32;;
16967;SDS011;64862;54.398;10.126;2022-11-20T01:06:44;14.00;;;7.95;;
16967;SDS011;64862;54.398;10.126;2022-11-20T01:09:12;10.73;;;6.05;;
16967;SDS011;64862;54.398;10.126;2022-11-20T01:11:41;9.07;;;5.55;;
16967;SDS011;64862;54.398;10.126;2022-11-20T01:14:13;9.93;;;5.88;;
16967;SDS011;64862;54.398;10.126;2022-11-20T01:16:42;10.02;;;5.50;;
16967;SDS011;64862;54.398;10.126;2022-11-20T01:19:13;8.60;;;5.20;;
16967;SDS011;64862;54.398;10.126;2022-11-20T01:21:42;8.10;;;5.10;;
16967;SDS011;64862;54.398;10.126;2022-11-20T01:24:12;9.70;;;4.55;;
16967;SDS011;64862;54.398;10.126;2022-11-20T01:26:42;9.18;;;4.70;;
16967;SDS011;64862;54.398;10.126;2022-11-20T01:29:34;6.65;;;4.45;;
16967;SDS011;64862;54.398;10.126;2022-11-20T01:32:34;10.27;;;5.95;;
16967;SDS011;64862;54.398;10.126;2022-11-20T01:36:27;11.35;;;6.35;;
16967;SDS011;64862;54.398;10.126;2022-11-20T01:38:56;10.55;;;5.43;;
16967;SDS011;64862;54.398;10.126;2022-11-20T01:41:24;7.18;;;4.28;;
16967;SDS011;64862;54.398;10.126;2022-11-20T01:44:11;8.20;;;4.10;;
16967;SDS011;64862;54.398;10.126;2022-11-20T01:46:42;7.22;;;4.28;;
16967;SDS011;64862;54.398;10.126;2022-11-20T01:49:19;6.85;;;4.30;;
16967;SDS011;64862;54.398;10.126;2022-11-20T01:51:51;6.20;;;3.63;;
16967;SDS011;64862;54.398;10.126;2022-11-20T01:54:21;7.40;;;4.25;;
16967;SDS011;64862;54.398;10.126;2022-11-20T01:56:53;8.10;;;4.60;;
16967;SDS011;64862;54.398;10.126;2022-11-20T01:59:22;8.13;;;4.30;;
16967;SDS011;64862;54.398;10.126;2022-11-20T02:01:52;4.63;;;3.30;;
16967;SDS011;64862;54.398;10.126;2022-11-20T02:04:20;5.10;;;2.90;;
16967;SDS011;64862;54.398;10.126;2022-11-20T02:06:48;4.43;;;2.88;;
16967;SDS011;64862;54.398;10.126;2022-11-20T02:09:17;3.70;;;2.15;;
16967;SDS011;64862;54.398;10.126;2022-11-20T02:11:44;2.55;;;1.80;;
16967;SDS011;64862;54.398;10.126;2022-11-20T02:14:11;2.05;;;1.27;;
16967;SDS011;64862;54.398;10.126;2022-11-20T02:16:37;4.38;;;1.10;;
16967;SDS011;64862;54.398;10.126;2022-11-20T02:19:12;1.27;;;0.60;;
16967;SDS011;64862;54.398;10.126;2022-11-20T02:21:46;2.60;;;0.32;;
16967;SDS011;64862;54.398;10.126;2022-11-20T02:24:19;2.60;;;0.70;;
16967;SDS011;64862;54.398;10.126;2022-11-20T02:26:49;0.90;;;0.50;;
16967;SDS011;64862;54.398;10.126;2022-11-20T02:29:22;3.20;;;0.70;;
16967;SDS011;64862;54.398;10.126;2022-11-20T02:31:51;2.70;;;0.90;;
16967;SDS011;64862;54.398;10.126;2022-11-20T02:34:21;1.42;;;0.60;;
16967;SDS011;64862;54.398;10.126;2022-11-20T02:36:48;1.65;;;0.60;;
16967;SDS011;64862;54.398;10.126;2022-11-20T02:39:16;2.70;;;0.40;;
16967;SDS011;64862;54.398;10.126;2022-11-20T02:41:46;1.05;;;0.50;;
16967;SDS011;64862;54.398;10.126;2022-11-20T02:44:13;1.38;;;0.55;;
16967;SDS011;64862;54.398;10.126;2022-11-20T02:46:40;1.23;;;0.40;;
16967;SDS011;64862;54.398;10.126;2022-11-20T02:49:07;1.35;;;0.40;;
16967;SDS011;64862;54.398;10.126;2022-11-20T02:51:34;1.63;;;0.40;;
16967;SDS011;64862;54.398;10.126;2022-11-20T02:54:01;1.15;;;0.45;;
16967;SDS011;64862;54.398;10.126;2022-11-20T02:56:28;1.20;;;0.30;;
16967;SDS011;64862;54.398;10.126;2022-11-20T02:58:56;0.50;;;0.30;;
16967;SDS011;64862;54.398;10.126;2022-11-20T03:01:23;1.23;;;0.40;;
16967;SDS011;64862;54.398;10.126;2022-11-20T03:03:50;2.85;;;0.30;;
16967;SDS011;64862;54.398;10.126;2022-11-20T03:06:19;0.95;;;0.32;;
16967;SDS011;64862;54.398;10.126;2022-11-20T03:08:46;1.02;;;0.43;;
16967;SDS011;64862;54.398;10.126;2022-11-20T03:11:13;0.85;;;0.50;;
16967;SDS011;64862;54.398;10.126;2022-11-20T03:13:40;1.25;;;0.50;;
16967;SDS011;64862;54.398;10.126;2022-11-20T03:16:10;1.20;;;0.55;;
16967;SDS011;64862;54.398;10.126;2022-11-20T03:18:39;1.85;;;0.70;;
16967;SDS011;64862;54.398;10.126;2022-11-20T03:21:06;1.52;;;0.70;;
16967;SDS011;64862;54.398;10.126;2022-11-20T03:23:34;1.48;;;0.73;;
16967;SDS011;64862;54.398;10.126;2022-11-20T03:26:08;1.77;;;0.57;;
16967;SDS011;64862;54.398;10.126;2022-11-20T03:28:37;1.25;;;0.50;;
16967;SDS011;64862;54.398;10.126;2022-11-20T03:31:07;0.70;;;0.30;;
16967;SDS011;64862;54.398;10.126;2022-11-20T03:33:37;3.95;;;0.77;;
16967;SDS011;64862;54.398;10.126;2022-11-20T03:36:05;2.85;;;0.55;;
16967;SDS011;64862;54.398;10.126;2022-11-20T03:38:34;6.28;;;0.70;;
16967;SDS011;64862;54.398;10.126;2022-11-20T03:41:01;2.65;;;0.80;;
16967;SDS011;64862;54.398;10.126;2022-11-20T03:43:30;2.92;;;0.77;;
16967;SDS011;64862;54.398;10.126;2022-11-20T03:45:58;2.92;;;0.63;;
16967;SDS011;64862;54.398;10.126;2022-11-20T03:48:28;3.42;;;0.85;;
16967;SDS011;64862;54.398;10.126;2022-11-20T03:51:05;2.35;;;0.70;;
16967;SDS011;64862;54.398;10.126;2022-11-20T03:53:33;7.25;;;0.75;;
16967;SDS011;64862;54.398;10.126;2022-11-20T03:56:02;3.35;;;0.93;;
16967;SDS011;64862;54.398;10.126;2022-11-20T03:58:32;3.88;;;0.70;;
16967;SDS011;64862;54.398;10.126;2022-11-20T04:01:03;1.77;;;0.60;;
16967;SDS011;64862;54.398;10.126;2022-11-20T04:03:32;2.13;;;1.10;;
16967;SDS011;64862;54.398;10.126;2022-11-20T04:06:03;5.82;;;2.60;;
16967;SDS011;64862;54.398;10.126;2022-11-20T04:08:31;4.43;;;1.90;;
16967;SDS011;64862;54.398;10.126;2022-11-20T04:11:07;1.65;;;1.08;;
16967;SDS011;64862;54.398;10.126;2022-11-20T04:13:38;3.22;;;1.10;;
16967;SDS011;64862;54.398;10.126;2022-11-20T04:16:05;2.95;;;1.25;;
16967;SDS011;64862;54.398;10.126;2022-11-20T04:18:34;1.80;;;1.02;;
16967;SDS011;64862;54.398;10.126;2022-11-20T04:21:02;2.70;;;1.05;;
16967;SDS011;64862;54.398;10.126;2022-11-20T04:23:30;1.58;;;1.10;;
16967;SDS011;64862;54.398;10.126;2022-11-20T04:26:00;1.83;;;1.10;;
16967;SDS011;64862;54.398;10.126;2022-11-20T04:28:28;2.60;;;1.38;;
16967;SDS011;64862;54.398;10.126;2022-11-20T04:31:01;4.57;;;1.73;;
16967;SDS011;64862;54.398;10.126;2022-11-20T04:33:29;3.60;;;1.67;;
16967;SDS011;64862;54.398;10.126;2022-11-20T04:36:00;9.73;;;1.90;;
16967;SDS011;64862;54.398;10.126;2022-11-20T04:38:28;3.63;;;1.60;;
16967;SDS011;64862;54.398;10.126;2022-11-20T04:40:56;3.55;;;1.63;;
16967;SDS011;64862;54.398;10.126;2022-11-20T04:43:24;4.22;;;1.75;;
16967;SDS011;64862;54.398;10.126;2022-11-20T04:45:51;2.50;;;1.67;;
16967;SDS011;64862;54.398;10.126;2022-11-20T04:48:19;2.38;;;1.27;;
16967;SDS011;64862;54.398;10.126;2022-11-20T04:50:46;4.18;;;1.70;;
16967;SDS011;64862;54.398;10.126;2022-11-20T04:53:18;2.22;;;1.48;;
16967;SDS011;64862;54.398;10.126;2022-11-20T04:55:45;1.77;;;1.08;;
16967;SDS011;64862;54.398;10.126;2022-11-20T04:58:12;1.83;;;1.25;;
16967;SDS011;64862;54.398;10.126;2022-11-20T05:00:40;1.65;;;1.20;;
16967;SDS011;64862;54.398;10.126;2022-11-20T05:03:07;2.65;;;1.45;;
16967;SDS011;64862;54.398;10.126;2022-11-20T05:05:34;1.60;;;1.10;;
16967;SDS011;64862;54.398;10.126;2022-11-20T05:08:01;2.28;;;1.23;;
16967;SDS011;64862;54.398;10.126;2022-11-20T05:10:29;3.08;;;1.20;;
16967;SDS011;64862;54.398;10.126;2022-11-20T05:12:56;2.88;;;1.10;;
16967;SDS011;64862;54.398;10.126;2022-11-20T05:15:23;1.92;;;1.20;;
16967;SDS011;64862;54.398;10.126;2022-11-20T05:17:51;3.50;;;1.20;;
16967;SDS011;64862;54.398;10.126;2022-11-20T05:20:19;2.50;;;1.20;;
16967;SDS011;64862;54.398;10.126;2022-11-20T05:22:46;1.83;;;1.27;;
16967;SDS011;64862;54.398;10.126;2022-11-20T05:25:16;3.28;;;1.50;;
16967;SDS011;64862;54.398;10.126;2022-11-20T05:27:44;2.65;;;1.58;;
16967;SDS011;64862;54.398;10.126;2022-11-20T05:30:12;2.20;;;1.58;;
16967;SDS011;64862;54.398;10.126;2022-11-20T05:32:40;2.90;;;1.80;;
16967;SDS011;64862;54.398;10.126;2022-11-20T05:35:07;2.78;;;1.67;;
16967;SDS011;64862;54.398;10.126;2022-11-20T05:37:34;3.00;;;1.92;;
16967;SDS011;64862;54.398;10.126;2022-11-20T05:40:01;6.22;;;2.97;;
16967;SDS011;64862;54.398;10.126;2022-11-20T05:42:29;4.88;;;3.22;;
16967;SDS011;64862;54.398;10.126;2022-11-20T05:44:58;4.80;;;3.70;;
16967;SDS011;64862;54.398;10.126;2022-11-20T05:47:27;5.70;;;4.03;;
16967;SDS011;64862;54.398;10.126;2022-11-20T05:49:57;6.97;;;4.10;;
16967;SDS011;64862;54.398;10.126;2022-11-20T05:52:24;6.00;;;4.68;;
16967;SDS011;64862;54.398;10.126;2022-11-20T05:54:54;8.68;;;5.20;;
16967;SDS011;64862;54.398;10.126;2022-11-20T05:57:21;7.47;;;5.38;;
16967;SDS011;64862;54.398;10.126;2022-11-20T05:59:48;7.93;;;5.53;;
16967;SDS011;64862;54.398;10.126;2022-11-20T06:02:16;7.65;;;5.60;;
16967;SDS011;64862;54.398;10.126;2022-11-20T06:04:43;7.25;;;5.05;;
16967;SDS011;64862;54.398;10.126;2022-11-20T06:07:10;8.07;;;5.78;;
16967;SDS011;64862;54.398;10.126;2022-11-20T06:09:37;8.15;;;5.47;;
16967;SDS011;64862;54.398;10.126;2022-11-20T06:12:05;10.35;;;5.88;;
16967;SDS011;64862;54.398;10.126;2022-11-20T06:14:35;8.68;;;6.13;;
16967;SDS011;64862;54.398;10.126;2022-11-20T06:17:02;10.20;;;6.50;;
16967;SDS011;64862;54.398;10.126;2022-11-20T06:19:31;13.18;;;6.10;;
16967;SDS011;64862;54.398;10.126;2022-11-20T06:21:57;8.40;;;6.43;;
16967;SDS011;64862;54.398;10.126;2022-11-20T06:24:24;12.15;;;7.68;;
16967;SDS011;64862;54.398;10.126;2022-11-20T06:26:51;11.60;;;7.13;;
16967;SDS011;64862;54.398;10.126;2022-11-20T06:29:18;10.23;;;7.90;;
16967;SDS011;64862;54.398;10.126;2022-11-20T06:31:45;11.32;;;7.43;;
16967;SDS011;64862;54.398;10.126;2022-11-20T06:34:12;10.77;;;7.93;;
16967;SDS011;64862;54.398;10.126;2022-11-20T06:36:41;9.68;;;7.40;;
16967;SDS011;64862;54.398;10.126;2022-11-20T06:39:08;9.32;;;6.70;;
16967;SDS011;64862;54.398;10.126;2022-11-20T06:41:35;10.90;;;8.13;;
16967;SDS011;64862;54.398;10.126;2022-11-20T06:44:03;8.93;;;5.88;;
16967;SDS011;64862;54.398;10.126;2022-11-20T06:46:30;6.30;;;4.10;;
16967;SDS011;64862;54.398;10.126;2022-11-20T06:48:58;5.93;;;3.20;;
16967;SDS011;64862;54.398;10.126;2022-11-20T06:51:25;5.60;;;2.58;;
16967;SDS011;64862;54.398;10.126;2022-11-20T06:53:53;4.85;;;2.58;;
16967;SDS011;64862;54.398;10.126;2022-11-20T06:56:20;7.10;;;2.83;;
16967;SDS011;64862;54.398;10.126;2022-11-20T06:58:50;7.53;;;2.20;;
16967;SDS011;64862;54.398;10.126;2022-11-20T07:01:17;4.43;;;2.40;;
16967;SDS011;64862;54.398;10.126;2022-11-20T07:03:44;4.20;;;2.30;;
16967;SDS011;64862;54.398;10.126;2022-11-20T07:06:14;3.70;;;2.00;;
16967;SDS011;64862;54.398;10.126;2022-11-20T07:08:41;5.80;;;1.92;;
16967;SDS011;64862;54.398;10.126;2022-11-20T07:11:12;3.90;;;2.33;;
16967;SDS011;64862;54.398;10.126;2022-11-20T07:13:39;3.53;;;2.28;;
16967;SDS011;64862;54.398;10.126;2022-11-20T07:16:06;5.15;;;2.55;;
16967;SDS011;64862;54.398;10.126;2022-11-20T07:18:34;3.00;;;2.00;;
16967;SDS011;64862;54.398;10.126;2022-11-20T07:21:02;3.85;;;2.20;;
16967;SDS011;64862;54.398;10.126;2022-11-20T07:23:30;5.88;;;3.35;;
16967;SDS011;64862;54.398;10.126;2022-11-20T07:25:57;3.17;;;2.20;;
16967;SDS011;64862;54.398;10.126;2022-11-20T07:28:29;3.13;;;2.00;;
16967;SDS011;64862;54.398;10.126;2022-11-20T07:30:56;2.10;;;1.15;;
16967;SDS011;64862;54.398;10.126;2022-11-20T07:33:23;2.63;;;0.80;;
16967;SDS011;64862;54.398;10.126;2022-11-20T07:35:50;3.53;;;1.30;;
16967;SDS011;64862;54.398;10.126;2022-11-20T07:38:17;1.05;;;0.45;;
16967;SDS011;64862;54.398;10.126;2022-11-20T07:40:44;1.17;;;0.80;;
16967;SDS011;64862;54.398;10.126;2022-11-20T07:43:11;2.28;;;0.63;;
16967;SDS011;64862;54.398;10.126;2022-11-20T07:45:40;3.47;;;1.00;;
16967;SDS011;64862;54.398;10.126;2022-11-20T07:48:07;4.20;;;1.10;;
16967;SDS011;64862;54.398;10.126;2022-11-20T07:50:34;3.42;;;1.33;;
16967;SDS011;64862;54.398;10.126;2022-11-20T07:53:01;2.65;;;1.10;;
16967;SDS011;64862;54.398;10.126;2022-11-20T07:55:29;5.72;;;2.60;;
16967;SDS011;64862;54.398;10.126;2022-11-20T07:57:57;3.00;;;1.30;;
16967;SDS011;64862;54.398;10.126;2022-11-20T08:00:24;4.70;;;1.10;;
16967;SDS011;64862;54.398;10.126;2022-11-20T08:02:53;3.60;;;0.90;;
16967;SDS011;64862;54.398;10.126;2022-11-20T08:05:20;2.97;;;1.60;;
16967;SDS011;64862;54.398;10.126;2022-11-20T08:07:48;2.65;;;1.25;;
16967;SDS011;64862;54.398;10.126;2022-11-20T08:10:15;2.15;;;1.50;;
16967;SDS011;64862;54.398;10.126;2022-11-20T08:12:45;4.75;;;1.70;;
16967;SDS011;64862;54.398;10.126;2022-11-20T08:15:31;3.40;;;1.60;;
16967;SDS011;64862;54.398;10.126;2022-11-20T08:18:00;6.45;;;2.10;;
16967;SDS011;64862;54.398;10.126;2022-11-20T08:20:28;3.05;;;1.50;;
16967;SDS011;64862;54.398;10.126;2022-11-20T08:22:58;3.25;;;1.52;;
16967;SDS011;64862;54.398;10.126;2022-11-20T08:25:26;2.75;;;1.60;;
16967;SDS011;64862;54.398;10.126;2022-11-20T08:27:56;3.50;;;1.50;;
16967;SDS011;64862;54.398;10.126;2022-11-20T08:30:24;2.60;;;1.30;;
16967;SDS011;64862;54.398;10.126;2022-11-20T08:32:52;6.93;;;1.90;;
16967;SDS011;64862;54.398;10.126;2022-11-20T08:35:20;3.78;;;2.03;;
16967;SDS011;64862;54.398;10.126;2022-11-20T08:37:47;4.32;;;2.55;;
16967;SDS011;64862;54.398;10.126;2022-11-20T08:40:15;5.72;;;2.63;;
16967;SDS011;64862;54.398;10.126;2022-11-20T08:42:45;4.85;;;2.80;;
16967;SDS011;64862;54.398;10.126;2022-11-20T08:45:13;6.20;;;3.40;;
16967;SDS011;64862;54.398;10.126;2022-11-20T08:47:41;6.55;;;3.45;;
16967;SDS011;64862;54.398;10.126;2022-11-20T08:50:10;6.70;;;4.53;;
16967;SDS011;64862;54.398;10.126;2022-11-20T08:52:39;7.40;;;4.57;;
16967;SDS011;64862;54.398;10.126;2022-11-20T08:55:07;5.90;;;3.60;;
16967;SDS011;64862;54.398;10.126;2022-11-20T08:57:35;6.63;;;3.53;;
16967;SDS011;64862;54.398;10.126;2022-11-20T09:00:03;7.60;;;3.45;;
16967;SDS011;64862;54.398;10.126;2022-11-20T09:02:31;12.82;;;4.07;;
16967;SDS011;64862;54.398;10.126;2022-11-20T09:04:59;7.03;;;3.88;;
16967;SDS011;64862;54.398;10.126;2022-11-20T09:07:27;7.88;;;3.95;;
16967;SDS011;64862;54.398;10.126;2022-11-20T09:09:56;6.53;;;3.97;;
16967;SDS011;64862;54.398;10.126;2022-11-20T09:12:23;8.00;;;3.90;;
16967;SDS011;64862;54.398;10.126;2022-11-20T09:14:50;6.55;;;4.05;;
16967;SDS011;64862;54.398;10.126;2022-11-20T09:17:17;6.32;;;3.42;;
16967;SDS011;64862;54.398;10.126;2022-11-20T09:19:45;17.27;;;6.30;;
16967;SDS011;64862;54.398;10.126;2022-11-20T09:22:13;39.17;;;13.73;;
16967;SDS011;64862;54.398;10.126;2022-11-20T09:24:40;11.20;;;6.00;;
16967;SDS011;64862;54.398;10.126;2022-11-20T09:27:09;7.90;;;4.10;;
16967;SDS011;64862;54.398;10.126;2022-11-20T09:29:36;9.43;;;4.35;;
16967;SDS011;64862;54.398;10.126;2022-11-20T09:32:03;6.75;;;4.15;;
16967;SDS011;64862;54.398;10.126;2022-11-20T09:34:31;9.40;;;4.05;;
16967;SDS011;64862;54.398;10.126;2022-11-20T09:37:00;7.43;;;3.90;;
16967;SDS011;64862;54.398;10.126;2022-11-20T09:39:27;9.57;;;4.93;;
16967;SDS011;64862;54.398;10.126;2022-11-20T09:42:07;7.18;;;4.18;;
16967;SDS011;64862;54.398;10.126;2022-11-20T09:45:01;7.30;;;4.15;;
16967;SDS011;64862;54.398;10.126;2022-11-20T09:48:04;6.70;;;3.80;;
16967;SDS011;64862;54.398;10.126;2022-11-20T09:50:42;5.95;;;4.30;;
16967;SDS011;64862;54.398;10.126;2022-11-20T09:53:13;8.55;;;4.32;;
16967;SDS011;64862;54.398;10.126;2022-11-20T09:55:54;6.70;;;4.00;;
16967;SDS011;64862;54.398;10.126;2022-11-20T09:58:27;7.28;;;4.60;;
16967;SDS011;64862;54.398;10.126;2022-11-20T10:00:59;8.65;;;4.70;;
16967;SDS011;64862;54.398;10.126;2022-11-20T10:03:35;8.93;;;4.80;;
16967;SDS011;64862;54.398;10.126;2022-11-20T10:06:08;6.50;;;4.43;;
16967;SDS011;64862;54.398;10.126;2022-11-20T10:08:40;6.45;;;3.42;;
16967;SDS011;64862;54.398;10.126;2022-11-20T10:11:12;10.15;;;5.00;;
16967;SDS011;64862;54.398;10.126;2022-11-20T10:13:51;7.30;;;3.35;;
16967;SDS011;64862;54.398;10.126;2022-11-20T10:16:30;7.85;;;3.28;;
16967;SDS011;64862;54.398;10.126;2022-11-20T10:19:10;5.47;;;2.88;;
16967;SDS011;64862;54.398;10.126;2022-11-20T10:21:57;6.82;;;3.80;;
16967;SDS011;64862;54.398;10.126;2022-11-20T10:24:41;7.93;;;4.28;;
16967;SDS011;64862;54.398;10.126;2022-11-20T10:27:31;9.05;;;3.95;;
16967;SDS011;64862;54.398;10.126;2022-11-20T10:30:09;5.65;;;3.38;;
16967;SDS011;64862;54.398;10.126;2022-11-20T10:32:39;9.57;;;4.03;;
16967;SDS011;64862;54.398;10.126;2022-11-20T11:02:01;24.02;;;10.32;;
16967;SDS011;64862;54.398;10.126;2022-11-20T11:04:42;12.77;;;6.75;;
16967;SDS011;64862;54.398;10.126;2022-11-20T11:07:13;9.55;;;4.38;;
16967;SDS011;64862;54.398;10.126;2022-11-20T11:09:43;9.73;;;5.53;;
16967;SDS011;64862;54.398;10.126;2022-11-20T11:12:13;8.52;;;4.22;;
16967;SDS011;64862;54.398;10.126;2022-11-20T11:14:49;4.78;;;2.67;;
16967;SDS011;64862;54.398;10.126;2022-11-20T11:17:21;12.30;;;5.70;;
16967;SDS011;64862;54.398;10.126;2022-11-20T11:20:03;12.18;;;5.47;;
16967;SDS011;64862;54.398;10.126;2022-11-20T11:22:33;6.00;;;3.35;;
16967;SDS011;64862;54.398;10.126;2022-11-20T11:25:01;9.77;;;4.25;;
16967;SDS011;64862;54.398;10.126;2022-11-20T11:27:28;9.18;;;4.45;;
16967;SDS011;64862;54.398;10.126;2022-11-20T11:32:46;13.45;;;5.70;;
16967;SDS011;64862;54.398;10.126;2022-11-20T11:35:20;11.63;;;5.97;;
16967;SDS011;64862;54.398;10.126;2022-11-20T11:37:50;14.88;;;6.72;;
16967;SDS011;64862;54.398;10.126;2022-11-20T11:40:20;11.45;;;5.85;;
16967;SDS011;64862;54.398;10.126;2022-11-20T11:42:57;7.68;;;3.72;;
16967;SDS011;64862;54.398;10.126;2022-11-20T11:45:28;7.20;;;3.33;;
16967;SDS011;64862;54.398;10.126;2022-11-20T11:47:55;7.40;;;3.13;;
16967;SDS011;64862;54.398;10.126;2022-11-20T11:50:24;6.80;;;4.28;;
16967;SDS011;64862;54.398;10.126;2022-11-20T11:52:56;5.70;;;2.50;;
16967;SDS011;64862;54.398;10.126;2022-11-20T11:55:31;8.40;;;4.88;;
16967;SDS011;64862;54.398;10.126;2022-11-20T11:58:10;8.20;;;4.90;;
16967;SDS011;64862;54.398;10.126;2022-11-20T12:00:48;6.32;;;3.22;;
16967;SDS011;64862;54.398;10.126;2022-11-20T12:03:21;5.90;;;2.38;;
16967;SDS011;64862;54.398;10.126;2022-11-20T12:05:55;7.30;;;3.65;;
16967;SDS011;64862;54.398;10.126;2022-11-20T12:08:26;5.55;;;3.25;;
16967;SDS011;64862;54.398;10.126;2022-11-20T12:10:57;4.18;;;2.50;;
16967;SDS011;64862;54.398;10.126;2022-11-20T12:13:34;6.53;;;2.63;;
16967;SDS011;64862;54.398;10.126;2022-11-20T12:16:10;5.85;;;1.95;;
16967;SDS011;64862;54.398;10.126;2022-11-20T12:18:39;3.85;;;2.22;;
16967;SDS011;64862;54.398;10.126;2022-11-20T12:21:11;3.97;;;2.17;;
16967;SDS011;64862;54.398;10.126;2022-11-20T12:23:48;3.05;;;1.90;;
16967;SDS011;64862;54.398;10.126;2022-11-20T12:26:29;3.17;;;1.80;;
16967;SDS011;64862;54.398;10.126;2022-11-20T12:29:08;4.15;;;2.20;;
16967;SDS011;64862;54.398;10.126;2022-11-20T12:31:51;4.03;;;2.35;;
16967;SDS011;64862;54.398;10.126;2022-11-20T12:34:42;6.65;;;2.97;;
16967;SDS011;64862;54.398;10.126;2022-11-20T12:37:17;4.70;;;2.30;;
16967;SDS011;64862;54.398;10.126;2022-11-20T12:39:56;8.13;;;3.40;;
16967;SDS011;64862;54.398;10.126;2022-11-20T12:42:31;7.07;;;2.83;;
16967;SDS011;64862;54.398;10.126;2022-11-20T12:45:28;6.38;;;2.45;;
16967;SDS011;64862;54.398;10.126;2022-11-20T12:48:21;5.40;;;2.90;;
16967;SDS011;64862;54.398;10.126;2022-11-20T12:51:06;7.00;;;3.55;;
16967;SDS011;64862;54.398;10.126;2022-11-20T12:53:51;8.13;;;4.03;;
16967;SDS011;64862;54.398;10.126;2022-11-20T12:56:30;5.25;;;3.15;;
16967;SDS011;64862;54.398;10.126;2022-11-20T12:59:08;5.70;;;2.67;;
16967;SDS011;64862;54.398;10.126;2022-11-20T13:01:53;5.20;;;2.40;;
16967;SDS011;64862;54.398;10.126;2022-11-20T13:04:28;4.65;;;1.67;;
16967;SDS011;64862;54.398;10.126;2022-11-20T13:07:12;3.85;;;1.90;;
16967;SDS011;64862;54.398;10.126;2022-11-20T13:09:42;5.40;;;3.00;;
16967;SDS011;64862;54.398;10.126;2022-11-20T13:12:14;5.10;;;2.75;;
16967;SDS011;64862;54.398;10.126;2022-11-20T13:14:47;5.05;;;2.10;;
16967;SDS011;64862;54.398;10.126;2022-11-20T13:17:21;5.25;;;3.00;;
16967;SDS011;64862;54.398;10.126;2022-11-20T13:19:56;4.03;;;2.38;;
16967;SDS011;64862;54.398;10.126;2022-11-20T13:22:25;7.63;;;2.97;;
16967;SDS011;64862;54.398;10.126;2022-11-20T13:24:52;8.63;;;2.40;;
16967;SDS011;64862;54.398;10.126;2022-11-20T13:27:20;6.88;;;2.38;;
16967;SDS011;64862;54.398;10.126;2022-11-20T13:32:47;9.68;;;3.25;;
16967;SDS011;64862;54.398;10.126;2022-11-20T13:35:24;9.52;;;2.10;;
16967;SDS011;64862;54.398;10.126;2022-11-20T13:38:01;4.45;;;1.73;;
16967;SDS011;64862;54.398;10.126;2022-11-20T13:40:31;6.78;;;2.00;;
16967;SDS011;64862;54.398;10.126;2022-11-20T13:43:04;4.95;;;1.83;;
16967;SDS011;64862;54.398;10.126;2022-11-20T13:45:40;3.60;;;1.65;;
16967;SDS011;64862;54.398;10.126;2022-11-20T13:48:18;7.30;;;2.00;;
16967;SDS011;64862;54.398;10.126;2022-11-20T13:50:52;5.38;;;2.50;;
16967;SDS011;64862;54.398;10.126;2022-11-20T13:53:33;5.18;;;2.05;;
16967;SDS011;64862;54.398;10.126;2022-11-20T13:56:23;6.50;;;2.47;;
16967;SDS011;64862;54.398;10.126;2022-11-20T13:58:59;6.38;;;2.88;;
16967;SDS011;64862;54.398;10.126;2022-11-20T14:01:31;5.05;;;2.28;;
16967;SDS011;64862;54.398;10.126;2022-11-20T14:03:59;5.35;;;1.90;;
16967;SDS011;64862;54.398;10.126;2022-11-20T14:06:34;3.17;;;1.60;;
16967;SDS011;64862;54.398;10.126;2022-11-20T14:09:10;4.97;;;2.03;;
16967;SDS011;64862;54.398;10.126;2022-11-20T14:11:45;3.40;;;1.73;;
16967;SDS011;64862;54.398;10.126;2022-11-20T14:14:14;5.28;;;1.70;;
16967;SDS011;64862;54.398;10.126;2022-11-20T14:16:42;2.90;;;1.45;;
16967;SDS011;64862;54.398;10.126;2022-11-20T14:19:26;4.22;;;2.28;;
16967;SDS011;64862;54.398;10.126;2022-11-20T14:22:07;4.40;;;2.00;;
16967;SDS011;64862;54.398;10.126;2022-11-20T14:24:44;4.18;;;2.00;;
16967;SDS011;64862;54.398;10.126;2022-11-20T14:27:14;4.35;;;2.17;;
16967;SDS011;64862;54.398;10.126;2022-11-20T14:29:46;4.40;;;2.70;;
16967;SDS011;64862;54.398;10.126;2022-11-20T14:32:16;5.72;;;2.97;;
16967;SDS011;64862;54.398;10.126;2022-11-20T14:34:45;5.28;;;3.00;;
16967;SDS011;64862;54.398;10.126;2022-11-20T14:37:19;6.22;;;3.53;;
16967;SDS011;64862;54.398;10.126;2022-11-20T14:42:18;6.50;;;3.20;;
16967;SDS011;64862;54.398;10.126;2022-11-20T14:44:47;6.10;;;3.42;;
16967;SDS011;64862;54.398;10.126;2022-11-20T14:47:20;6.55;;;3.10;;
16967;SDS011;64862;54.398;10.126;2022-11-20T14:49:49;8.50;;;3.85;;
16967;SDS011;64862;54.398;10.126;2022-11-20T14:52:20;6.25;;;3.30;;
16967;SDS011;64862;54.398;10.126;2022-11-20T14:54:48;7.90;;;3.55;;
16967;SDS011;64862;54.398;10.126;2022-11-20T14:57:20;6.05;;;3.75;;
16967;SDS011;64862;54.398;10.126;2022-11-20T14:59:49;6.85;;;4.18;;
16967;SDS011;64862;54.398;10.126;2022-11-20T15:02:16;6.55;;;4.15;;
16967;SDS011;64862;54.398;10.126;2022-11-20T15:04:44;6.55;;;3.90;;
16967;SDS011;64862;54.398;10.126;2022-11-20T15:07:22;7.53;;;4.05;;
16967;SDS011;64862;54.398;10.126;2022-11-20T15:10:06;7.28;;;4.13;;
16967;SDS011;64862;54.398;10.126;2022-11-20T15:12:35;7.45;;;4.47;;
16967;SDS011;64862;54.398;10.126;2022-11-20T15:15:05;7.85;;;4.75;;
16967;SDS011;64862;54.398;10.126;2022-11-20T15:17:37;7.68;;;5.03;;
16967;SDS011;64862;54.398;10.126;2022-11-20T15:20:09;8.80;;;4.93;;
16967;SDS011;64862;54.398;10.126;2022-11-20T15:22:40;8.30;;;4.80;;
16967;SDS011;64862;54.398;10.126;2022-11-20T15:25:11;6.60;;;4.53;;
16967;SDS011;64862;54.398;10.126;2022-11-20T15:27:40;9.82;;;5.40;;
16967;SDS011;64862;54.398;10.126;2022-11-20T15:30:14;7.25;;;5.15;;
16967;SDS011;64862;54.398;10.126;2022-11-20T15:32:45;8.55;;;5.53;;